Time;durP1;ratioP1;P1;durP2;ratioP2;P2;SDS_P1;SDS_P2;PMS_P1;PMS_P2;Temp;Humidity;BMP_temperature;BMP_pressure;BME280_temperature;BME280_humidity;BME280_pressure;Samples;Min_cycle;Max_cycle;Signal;HPM_P1;HPM_P2
2023/11/02 00:00:27;;;;;;;2.30;0.88;;;;;;;;;;477215;28;1078;-70
2023/11/02 00:00:42;;;;;;;3.20;0.90;;;;;;;;;;478785;28;1037;-71
2023/11/02 00:01:06;;;;;;;2.03;0.80;;;;;;;;;;479755;28;917;-70
2023/11/02 00:01:21;;;;;;;2.45;0.70;;;;;;;;;;479383;28;1632;-70
2023/11/02 00:01:37;;;;;;;2.03;0.70;;;;;;;;;;479371;28;1012;-70
2023/11/02 00:01:56;;;;;;;2.33;0.70;;;;;;;;;;479469;28;874;-70
2023/11/02 00:02:28;;;;;;;2.38;0.77;;;;;;;;;;479891;28;947;-71
2023/11/02 00:02:43;;;;;;;2.17;0.73;;;;;;;;;;479781;28;977;-70
2023/11/02 00:02:58;;;;;;;2.37;0.80;;;;;;;;;;481392;28;1251;-70
2023/11/02 00:03:30;;;;;;;2.83;0.83;;;;;;;;;;481527;28;1137;-70
2023/11/02 00:03:45;;;;;;;2.67;0.82;;;;;;;;;;481058;28;1133;-70
2023/11/02 00:04:00;;;;;;;2.08;0.90;;;;;;;;;;481378;28;1155;-70
2023/11/02 00:04:16;;;;;;;2.20;0.87;;;;;;;;;;480739;28;1614;-70
2023/11/02 00:04:31;;;;;;;2.03;0.77;;;;;;;;;;480558;28;945;-70
2023/11/02 00:04:47;;;;;;;1.73;0.80;;;;;;;;;;479311;28;1163;-71
2023/11/02 00:05:03;;;;;;;1.92;0.75;;;;;;;;;;478131;28;1334;-70
2023/11/02 00:05:48;;;;;;;2.05;0.60;;;;;;;;;;476753;28;1313;-70
2023/11/02 00:06:03;;;;;;;1.67;0.75;;;;;;;;;;476442;28;1228;-70
2023/11/02 00:06:23;;;;;;;2.07;0.80;;;;;;;;;;475459;28;1056;-70
2023/11/02 00:06:39;;;;;;;3.13;0.88;;;;;;;;;;475527;28;1067;-70
2023/11/02 00:06:55;;;;;;;2.45;0.80;;;;;;;;;;476410;28;1233;-70
2023/11/02 00:07:11;;;;;;;1.83;0.70;;;;;;;;;;477991;28;953;-70
2023/11/02 00:07:30;;;;;;;2.28;0.70;;;;;;;;;;477698;28;1204;-70
2023/11/02 00:07:46;;;;;;;2.55;0.80;;;;;;;;;;478127;28;915;-69
2023/11/02 00:08:01;;;;;;;2.60;0.90;;;;;;;;;;478255;28;1013;-70
2023/11/02 00:08:17;;;;;;;2.97;0.80;;;;;;;;;;478461;28;1486;-70
2023/11/02 00:08:34;;;;;;;4.20;0.70;;;;;;;;;;476528;28;1081;-70
2023/11/02 00:09:17;;;;;;;3.60;0.70;;;;;;;;;;475441;28;1211;-70
2023/11/02 00:09:35;;;;;;;3.47;0.90;;;;;;;;;;475411;28;942;-70
2023/11/02 00:09:56;;;;;;;2.88;0.73;;;;;;;;;;473901;28;1057;-70
2023/11/02 00:10:11;;;;;;;2.58;0.77;;;;;;;;;;474697;28;1426;-70
2023/11/02 00:10:27;;;;;;;3.80;0.90;;;;;;;;;;474590;28;1085;-70
2023/11/02 00:10:42;;;;;;;2.90;0.77;;;;;;;;;;477756;28;1435;-70
2023/11/02 00:11:05;;;;;;;2.73;0.70;;;;;;;;;;480157;28;1317;-70
2023/11/02 00:11:45;;;;;;;2.40;0.75;;;;;;;;;;479533;28;889;-70
2023/11/02 00:12:03;;;;;;;1.83;0.90;;;;;;;;;;478967;28;1063;-70
2023/11/02 00:12:27;;;;;;;2.33;0.88;;;;;;;;;;481447;28;1289;-70
2023/11/02 00:12:43;;;;;;;2.72;0.90;;;;;;;;;;479469;28;1561;-70
2023/11/02 00:12:59;;;;;;;2.47;0.88;;;;;;;;;;478664;28;996;-70
2023/11/02 00:13:22;;;;;;;2.67;0.82;;;;;;;;;;479390;28;1117;-70
2023/11/02 00:13:37;;;;;;;2.13;0.70;;;;;;;;;;478694;28;1309;-70
2023/11/02 00:13:53;;;;;;;2.60;0.80;;;;;;;;;;477126;28;1147;-70
2023/11/02 00:14:09;;;;;;;2.67;0.95;;;;;;;;;;476968;28;875;-70
2023/11/02 00:14:27;;;;;;;2.00;0.85;;;;;;;;;;478253;28;1272;-70
2023/11/02 00:14:47;;;;;;;1.80;0.75;;;;;;;;;;477134;28;1193;-70
2023/11/02 00:15:04;;;;;;;1.90;0.70;;;;;;;;;;476104;28;1407;-70
2023/11/02 00:15:21;;;;;;;1.95;0.70;;;;;;;;;;476979;28;1555;-70
2023/11/02 00:15:36;;;;;;;2.20;0.80;;;;;;;;;;476748;28;1393;-70
2023/11/02 00:15:53;;;;;;;2.47;0.80;;;;;;;;;;476744;28;949;-71
2023/11/02 00:16:10;;;;;;;2.75;0.80;;;;;;;;;;475066;28;1132;-70
2023/11/02 00:16:25;;;;;;;2.55;0.90;;;;;;;;;;476392;28;1231;-70
2023/11/02 00:16:41;;;;;;;2.83;0.80;;;;;;;;;;476129;28;1257;-70
2023/11/02 00:16:57;;;;;;;2.17;0.67;;;;;;;;;;477323;28;929;-70
2023/11/02 00:17:35;;;;;;;1.95;0.70;;;;;;;;;;478070;28;886;-69
2023/11/02 00:17:50;;;;;;;1.63;0.60;;;;;;;;;;478699;28;1788;-70
2023/11/02 00:18:06;;;;;;;1.83;0.60;;;;;;;;;;481235;28;1398;-70
2023/11/02 00:18:22;;;;;;;1.58;0.60;;;;;;;;;;480747;28;1060;-70
2023/11/02 00:18:37;;;;;;;1.67;0.70;;;;;;;;;;480631;28;882;-71
2023/11/02 00:18:53;;;;;;;2.67;0.80;;;;;;;;;;478755;28;1132;-70
2023/11/02 00:19:13;;;;;;;4.05;0.88;;;;;;;;;;478229;28;2125;-71
2023/11/02 00:19:32;;;;;;;3.03;0.90;;;;;;;;;;478253;28;1016;-70
2023/11/02 00:19:47;;;;;;;2.28;0.80;;;;;;;;;;476716;28;1208;-69
2023/11/02 00:20:04;;;;;;;2.67;0.70;;;;;;;;;;473647;28;1216;-70
2023/11/02 00:20:31;;;;;;;3.58;0.90;;;;;;;;;;471666;28;1239;-70
2023/11/02 00:20:54;;;;;;;2.80;0.80;;;;;;;;;;474278;28;965;-71
2023/11/02 00:21:23;;;;;;;2.38;0.70;;;;;;;;;;474902;28;1035;-70
2023/11/02 00:21:38;;;;;;;3.05;0.80;;;;;;;;;;476077;28;1005;-70
2023/11/02 00:21:55;;;;;;;2.67;0.80;;;;;;;;;;477117;28;997;-70
2023/11/02 00:22:10;;;;;;;2.45;0.80;;;;;;;;;;477003;28;1160;-71
2023/11/02 00:22:27;;;;;;;2.43;0.80;;;;;;;;;;476790;28;1347;-70
2023/11/02 00:22:44;;;;;;;3.80;0.85;;;;;;;;;;474250;28;1497;-70
2023/11/02 00:23:00;;;;;;;4.70;0.90;;;;;;;;;;474806;28;1087;-70
2023/11/02 00:23:39;;;;;;;3.40;0.80;;;;;;;;;;476609;28;1070;-70
2023/11/02 00:23:54;;;;;;;2.50;0.80;;;;;;;;;;476549;28;1354;-70
2023/11/02 00:24:10;;;;;;;2.40;0.70;;;;;;;;;;477316;28;1310;-70
2023/11/02 00:24:27;;;;;;;2.05;0.70;;;;;;;;;;476605;28;1041;-71
2023/11/02 00:24:44;;;;;;;1.83;0.70;;;;;;;;;;477335;28;1000;-70
2023/11/02 00:25:04;;;;;;;2.22;0.77;;;;;;;;;;477019;28;910;-70
2023/11/02 00:25:37;;;;;;;2.75;0.77;;;;;;;;;;477017;28;964;-70
2023/11/02 00:25:57;;;;;;;2.15;0.68;;;;;;;;;;476406;28;914;-70
2023/11/02 00:26:19;;;;;;;1.75;0.70;;;;;;;;;;479245;28;941;-70
2023/11/02 00:26:34;;;;;;;3.28;0.90;;;;;;;;;;478416;28;1556;-70
2023/11/02 00:26:49;;;;;;;4.13;0.93;;;;;;;;;;478873;28;1328;-70
2023/11/02 00:27:05;;;;;;;3.23;0.80;;;;;;;;;;481204;28;1080;-70
2023/11/02 00:27:20;;;;;;;3.20;0.75;;;;;;;;;;481311;28;944;-70
2023/11/02 00:27:36;;;;;;;2.93;0.80;;;;;;;;;;480188;28;1011;-70
2023/11/02 00:27:51;;;;;;;2.40;0.80;;;;;;;;;;478702;28;1218;-70
2023/11/02 00:28:10;;;;;;;2.03;0.70;;;;;;;;;;478432;28;995;-71
2023/11/02 00:28:25;;;;;;;2.00;0.63;;;;;;;;;;476886;28;1325;-70
2023/11/02 00:28:40;;;;;;;2.40;0.73;;;;;;;;;;477194;28;1416;-70
2023/11/02 00:28:56;;;;;;;2.03;0.70;;;;;;;;;;475938;28;1011;-70
2023/11/02 00:29:11;;;;;;;2.75;0.88;;;;;;;;;;475020;28;882;-70
2023/11/02 00:29:26;;;;;;;2.93;0.80;;;;;;;;;;473851;28;1141;-70
2023/11/02 00:29:42;;;;;;;2.95;0.68;;;;;;;;;;476021;28;1064;-70
2023/11/02 00:29:57;;;;;;;3.90;0.80;;;;;;;;;;477206;28;886;-70
2023/11/02 00:30:14;;;;;;;3.10;0.80;;;;;;;;;;477692;28;1173;-70
2023/11/02 00:30:29;;;;;;;2.97;0.80;;;;;;;;;;475469;28;1284;-70
2023/11/02 00:30:46;;;;;;;2.67;0.90;;;;;;;;;;474706;28;1161;-70
2023/11/02 00:31:01;;;;;;;1.70;0.73;;;;;;;;;;475697;28;1538;-71
2023/11/02 00:31:16;;;;;;;1.73;0.70;;;;;;;;;;474536;28;835;-71
2023/11/02 00:31:32;;;;;;;2.55;0.70;;;;;;;;;;473579;28;1081;-70
2023/11/02 00:31:47;;;;;;;3.50;0.80;;;;;;;;;;475126;28;1321;-70
2023/11/02 00:32:03;;;;;;;3.90;0.90;;;;;;;;;;474943;28;1219;-70
2023/11/02 00:32:19;;;;;;;3.10;0.80;;;;;;;;;;474956;28;999;-70
2023/11/02 00:32:34;;;;;;;2.28;0.85;;;;;;;;;;478405;28;1406;-70
2023/11/02 00:32:50;;;;;;;2.40;0.80;;;;;;;;;;477539;28;1239;-70
2023/11/02 00:33:05;;;;;;;2.42;0.90;;;;;;;;;;478222;28;966;-70
2023/11/02 00:33:21;;;;;;;2.50;0.80;;;;;;;;;;477181;28;1313;-70
2023/11/02 00:33:36;;;;;;;2.75;0.70;;;;;;;;;;479543;28;910;-70
2023/11/02 00:33:52;;;;;;;2.40;0.70;;;;;;;;;;478463;28;1193;-70
2023/11/02 00:34:07;;;;;;;2.88;0.80;;;;;;;;;;479929;28;862;-70
2023/11/02 00:34:22;;;;;;;3.17;0.90;;;;;;;;;;479299;28;920;-70
2023/11/02 00:34:39;;;;;;;1.83;0.80;;;;;;;;;;476851;28;1199;-70
2023/11/02 00:34:54;;;;;;;1.67;0.73;;;;;;;;;;478163;28;1142;-70
2023/11/02 00:35:10;;;;;;;2.00;0.70;;;;;;;;;;478472;28;1055;-70
2023/11/02 00:35:25;;;;;;;2.67;0.80;;;;;;;;;;479133;28;949;-70
2023/11/02 00:35:45;;;;;;;2.80;0.90;;;;;;;;;;478674;28;857;-70
2023/11/02 00:36:01;;;;;;;2.05;0.80;;;;;;;;;;479485;28;1181;-70
2023/11/02 00:36:17;;;;;;;1.92;0.60;;;;;;;;;;477001;28;1194;-71
2023/11/02 00:36:32;;;;;;;2.60;0.70;;;;;;;;;;475163;28;1141;-70
2023/11/02 00:36:48;;;;;;;2.33;0.80;;;;;;;;;;476414;28;1079;-70
2023/11/02 00:37:03;;;;;;;2.28;0.82;;;;;;;;;;475064;28;1314;-70
2023/11/02 00:37:18;;;;;;;2.40;0.80;;;;;;;;;;474762;28;1024;-70
2023/11/02 00:37:38;;;;;;;2.28;0.70;;;;;;;;;;474949;28;997;-70
2023/11/02 00:37:54;;;;;;;2.67;0.70;;;;;;;;;;474956;28;1215;-70
2023/11/02 00:38:09;;;;;;;2.10;0.70;;;;;;;;;;475861;28;1063;-70
2023/11/02 00:38:26;;;;;;;2.47;0.77;;;;;;;;;;476347;28;1009;-70
2023/11/02 00:38:43;;;;;;;3.67;0.80;;;;;;;;;;476417;28;914;-70
2023/11/02 00:38:58;;;;;;;4.30;0.90;;;;;;;;;;477602;28;1147;-70
2023/11/02 00:39:14;;;;;;;2.92;0.90;;;;;;;;;;479233;28;1949;-70
2023/11/02 00:39:29;;;;;;;2.73;0.77;;;;;;;;;;476071;28;1069;-70
2023/11/02 00:39:45;;;;;;;3.27;0.80;;;;;;;;;;477256;28;1126;-71
2023/11/02 00:40:01;;;;;;;3.10;0.77;;;;;;;;;;478550;28;1061;-70
2023/11/02 00:40:16;;;;;;;3.67;0.80;;;;;;;;;;477676;28;1064;-70
2023/11/02 00:40:32;;;;;;;3.03;0.73;;;;;;;;;;476333;28;1242;-70
2023/11/02 00:40:48;;;;;;;2.53;0.80;;;;;;;;;;476710;28;1063;-70
2023/11/02 00:41:03;;;;;;;3.42;0.80;;;;;;;;;;476321;28;933;-71
2023/11/02 00:41:19;;;;;;;3.08;0.70;;;;;;;;;;477386;28;977;-70
2023/11/02 00:41:35;;;;;;;2.20;0.60;;;;;;;;;;479362;28;925;-70
2023/11/02 00:41:50;;;;;;;2.25;0.70;;;;;;;;;;477913;28;1154;-70
2023/11/02 00:42:06;;;;;;;4.03;0.73;;;;;;;;;;476375;28;1100;-70
2023/11/02 00:42:23;;;;;;;4.05;0.80;;;;;;;;;;477809;28;891;-70
2023/11/02 00:42:38;;;;;;;2.50;0.80;;;;;;;;;;477989;28;1062;-70
2023/11/02 00:42:54;;;;;;;2.55;0.80;;;;;;;;;;476489;28;1040;-70
2023/11/02 00:43:09;;;;;;;2.10;0.70;;;;;;;;;;475279;28;1390;-70
2023/11/02 00:43:26;;;;;;;2.47;0.73;;;;;;;;;;475027;28;950;-70
2023/11/02 00:43:41;;;;;;;3.65;0.85;;;;;;;;;;476306;28;1076;-70
2023/11/02 00:43:57;;;;;;;3.03;0.80;;;;;;;;;;478961;28;934;-70
2023/11/02 00:44:13;;;;;;;1.83;0.70;;;;;;;;;;480414;28;867;-70
2023/11/02 00:44:29;;;;;;;1.77;0.70;;;;;;;;;;477954;28;1254;-70
2023/11/02 00:44:47;;;;;;;2.13;0.88;;;;;;;;;;475760;28;1405;-70
2023/11/02 00:45:02;;;;;;;2.50;0.80;;;;;;;;;;475024;28;1542;-70
2023/11/02 00:45:18;;;;;;;3.27;0.80;;;;;;;;;;473643;28;1182;-70
2023/11/02 00:45:38;;;;;;;4.05;0.90;;;;;;;;;;473725;28;1182;-71
2023/11/02 00:45:54;;;;;;;2.90;0.65;;;;;;;;;;472904;28;1593;-70
2023/11/02 00:46:10;;;;;;;3.60;0.70;;;;;;;;;;474036;28;975;-70
2023/11/02 00:46:26;;;;;;;3.63;0.73;;;;;;;;;;474534;28;887;-70
2023/11/02 00:46:43;;;;;;;2.35;0.70;;;;;;;;;;476595;28;911;-70
2023/11/02 00:46:59;;;;;;;2.78;0.70;;;;;;;;;;476034;28;1282;-70
2023/11/02 00:47:16;;;;;;;3.40;0.80;;;;;;;;;;475138;28;1186;-70
2023/11/02 00:47:32;;;;;;;2.97;0.80;;;;;;;;;;477212;28;973;-70
2023/11/02 00:47:48;;;;;;;2.65;0.70;;;;;;;;;;478021;28;1032;-70
2023/11/02 00:48:06;;;;;;;2.38;0.80;;;;;;;;;;477598;28;977;-71
2023/11/02 00:48:26;;;;;;;2.30;0.80;;;;;;;;;;477639;28;1143;-70
2023/11/02 00:48:41;;;;;;;2.28;0.80;;;;;;;;;;478364;28;946;-71
2023/11/02 00:48:57;;;;;;;3.17;0.80;;;;;;;;;;477890;28;1324;-69
2023/11/02 00:49:29;;;;;;;3.63;0.90;;;;;;;;;;479177;28;1260;-70
2023/11/02 00:49:45;;;;;;;1.73;0.60;;;;;;;;;;476688;28;1308;-70
2023/11/02 00:50:00;;;;;;;1.98;0.70;;;;;;;;;;478795;28;1506;-70
2023/11/02 00:51:07;;;;;;;2.60;0.80;;;;;;;;;;479032;28;1107;-70
2023/11/02 00:51:28;;;;;;;2.38;0.75;;;;;;;;;;469376;28;1265;-70
2023/11/02 00:51:46;;;;;;;3.55;0.88;;;;;;;;;;469867;28;1187;-70
2023/11/02 00:52:04;;;;;;;3.88;0.82;;;;;;;;;;466108;29;1094;-70
2023/11/02 00:52:20;;;;;;;3.63;1.00;;;;;;;;;;467487;29;1537;-71
2023/11/02 00:52:35;;;;;;;3.20;0.90;;;;;;;;;;468242;29;1171;-70
2023/11/02 00:52:50;;;;;;;2.37;0.60;;;;;;;;;;468716;29;923;-71
2023/11/02 00:53:06;;;;;;;2.03;0.65;;;;;;;;;;467855;29;1258;-70
2023/11/02 00:53:21;;;;;;;2.53;0.70;;;;;;;;;;467368;29;1241;-71
2023/11/02 00:53:41;;;;;;;2.40;0.70;;;;;;;;;;467283;29;1174;-70
2023/11/02 00:53:57;;;;;;;2.13;0.75;;;;;;;;;;466910;29;1549;-70
2023/11/02 00:54:48;;;;;;;2.00;0.70;;;;;;;;;;467825;28;1145;-70
2023/11/02 00:55:04;;;;;;;2.03;0.70;;;;;;;;;;469627;28;1084;-70
2023/11/02 00:55:33;;;;;;;2.75;0.80;;;;;;;;;;470904;28;1355;-71
2023/11/02 00:55:49;;;;;;;3.35;0.77;;;;;;;;;;470478;28;1073;-70
2023/11/02 00:56:06;;;;;;;2.97;0.70;;;;;;;;;;469965;28;1197;-70
2023/11/02 00:56:24;;;;;;;3.47;0.80;;;;;;;;;;469061;28;1200;-70
2023/11/02 00:56:39;;;;;;;2.30;0.70;;;;;;;;;;469979;28;914;-70
2023/11/02 00:56:55;;;;;;;2.67;0.77;;;;;;;;;;469630;28;1338;-70
2023/11/02 00:57:22;;;;;;;3.67;0.93;;;;;;;;;;470254;28;1131;-70
2023/11/02 00:57:39;;;;;;;3.45;0.80;;;;;;;;;;469372;28;2449;-70
2023/11/02 00:57:57;;;;;;;4.03;0.95;;;;;;;;;;468907;28;1696;-70
2023/11/02 00:58:15;;;;;;;3.38;0.80;;;;;;;;;;467187;29;1037;-70
2023/11/02 00:58:31;;;;;;;3.08;0.80;;;;;;;;;;467476;29;1097;-71
2023/11/02 00:58:49;;;;;;;2.57;0.67;;;;;;;;;;468624;28;954;-70
2023/11/02 00:59:05;;;;;;;2.60;0.70;;;;;;;;;;469554;28;1155;-70
2023/11/02 00:59:20;;;;;;;3.20;0.80;;;;;;;;;;468176;29;2027;-70
2023/11/02 00:59:37;;;;;;;3.20;0.70;;;;;;;;;;468339;29;1443;-70
2023/11/02 00:59:58;;;;;;;2.88;0.60;;;;;;;;;;467186;29;1099;-70
2023/11/02 01:00:55;;;;;;;2.60;0.70;;;;;;;;;;467080;29;1134;-70
2023/11/02 01:01:15;;;;;;;2.90;0.90;;;;;;;;;;463883;29;1439;-70
2023/11/02 01:01:31;;;;;;;2.45;0.80;;;;;;;;;;465342;29;900;-70
2023/11/02 01:01:46;;;;;;;2.05;0.70;;;;;;;;;;466626;28;1317;-71
2023/11/02 01:02:02;;;;;;;2.30;0.60;;;;;;;;;;469543;28;1287;-70
2023/11/02 01:02:19;;;;;;;2.80;0.80;;;;;;;;;;468689;29;1250;-70
2023/11/02 01:02:37;;;;;;;2.35;0.85;;;;;;;;;;468231;29;1185;-70
2023/11/02 01:02:53;;;;;;;2.55;0.70;;;;;;;;;;468169;29;978;-70
2023/11/02 01:03:08;;;;;;;2.90;0.70;;;;;;;;;;469746;28;1011;-70
2023/11/02 01:03:25;;;;;;;2.53;0.80;;;;;;;;;;469320;28;1231;-70
2023/11/02 01:03:46;;;;;;;2.50;0.70;;;;;;;;;;469681;28;1150;-71
2023/11/02 01:04:05;;;;;;;2.80;0.80;;;;;;;;;;470642;28;1202;-70
2023/11/02 01:04:54;;;;;;;3.03;0.80;;;;;;;;;;472497;28;923;-70
2023/11/02 01:05:22;;;;;;;3.13;0.93;;;;;;;;;;465598;29;1185;-70
2023/11/02 01:05:37;;;;;;;4.22;0.70;;;;;;;;;;469140;28;2143;-70
2023/11/02 01:05:53;;;;;;;3.42;0.70;;;;;;;;;;467959;29;1251;-70
2023/11/02 01:06:15;;;;;;;2.90;0.80;;;;;;;;;;468722;29;1209;-70
2023/11/02 01:06:31;;;;;;;3.42;0.90;;;;;;;;;;468217;29;1045;-69
2023/11/02 01:06:47;;;;;;;3.67;0.90;;;;;;;;;;468362;29;1208;-70
2023/11/02 01:07:02;;;;;;;3.03;0.80;;;;;;;;;;468345;29;1608;-70
2023/11/02 01:07:18;;;;;;;2.33;0.70;;;;;;;;;;467392;29;1246;-70
2023/11/02 01:07:34;;;;;;;2.80;0.90;;;;;;;;;;465876;29;1157;-70
2023/11/02 01:07:50;;;;;;;2.20;0.83;;;;;;;;;;465850;29;1334;-70
2023/11/02 01:08:05;;;;;;;2.28;0.70;;;;;;;;;;465218;29;1326;-70
2023/11/02 01:08:29;;;;;;;2.77;0.77;;;;;;;;;;464556;29;1202;-71
2023/11/02 01:08:54;;;;;;;4.57;1.05;;;;;;;;;;464481;29;1059;-70
2023/11/02 01:09:35;;;;;;;3.08;0.70;;;;;;;;;;464759;29;1061;-70
2023/11/02 01:10:00;;;;;;;4.45;0.80;;;;;;;;;;467369;29;1315;-70
2023/11/02 01:10:17;;;;;;;2.58;0.75;;;;;;;;;;468784;28;2034;-70
2023/11/02 01:10:32;;;;;;;2.75;0.82;;;;;;;;;;470299;28;1147;-71
2023/11/02 01:10:48;;;;;;;3.50;0.90;;;;;;;;;;469474;28;1178;-70
2023/11/02 01:11:03;;;;;;;4.40;1.00;;;;;;;;;;469145;28;1189;-70
2023/11/02 01:11:22;;;;;;;3.63;0.90;;;;;;;;;;467524;29;1198;-70
2023/11/02 01:11:37;;;;;;;3.67;0.70;;;;;;;;;;468365;29;995;-70
2023/11/02 01:11:53;;;;;;;2.53;0.80;;;;;;;;;;468529;29;1114;-70
2023/11/02 01:12:08;;;;;;;3.17;0.80;;;;;;;;;;468294;29;1090;-70
2023/11/02 01:12:36;;;;;;;3.45;0.80;;;;;;;;;;467283;29;931;-70
2023/11/02 01:12:53;;;;;;;3.60;0.75;;;;;;;;;;466447;29;1126;-70
2023/11/02 01:13:13;;;;;;;3.47;0.80;;;;;;;;;;464872;29;1351;-70
2023/11/02 01:13:28;;;;;;;2.50;0.90;;;;;;;;;;469101;29;1210;-70
2023/11/02 01:13:43;;;;;;;2.37;0.80;;;;;;;;;;466595;29;1265;-70
2023/11/02 01:13:59;;;;;;;2.22;0.70;;;;;;;;;;467028;29;1006;-70
2023/11/02 01:14:47;;;;;;;2.20;0.80;;;;;;;;;;467718;29;1317;-70
2023/11/02 01:15:10;;;;;;;2.35;0.90;;;;;;;;;;469065;28;1036;-71
2023/11/02 01:15:58;;;;;;;2.28;0.68;;;;;;;;;;467546;28;1546;-70
2023/11/02 01:16:14;;;;;;;2.17;0.73;;;;;;;;;;463604;29;1593;-70
2023/11/02 01:16:29;;;;;;;1.85;0.70;;;;;;;;;;468074;29;900;-70
2023/11/02 01:16:45;;;;;;;2.63;0.80;;;;;;;;;;466030;29;1271;-70
2023/11/02 01:17:01;;;;;;;2.97;0.82;;;;;;;;;;467674;29;915;-70
2023/11/02 01:17:33;;;;;;;2.37;0.80;;;;;;;;;;466232;29;1246;-70
2023/11/02 01:17:48;;;;;;;3.13;0.80;;;;;;;;;;464918;29;1217;-70
2023/11/02 01:18:04;;;;;;;3.13;0.90;;;;;;;;;;465818;29;1124;-70
2023/11/02 01:18:19;;;;;;;3.23;0.80;;;;;;;;;;466073;29;982;-70
2023/11/02 01:18:38;;;;;;;3.05;0.80;;;;;;;;;;465925;29;927;-70
2023/11/02 01:18:55;;;;;;;2.63;0.82;;;;;;;;;;466853;29;1229;-70
2023/11/02 01:19:40;;;;;;;2.55;0.70;;;;;;;;;;467370;29;2030;-70
2023/11/02 01:20:03;;;;;;;2.80;0.70;;;;;;;;;;467750;29;1273;-70
2023/11/02 01:20:39;;;;;;;2.60;0.77;;;;;;;;;;468697;29;963;-70
2023/11/02 01:20:57;;;;;;;3.15;0.75;;;;;;;;;;470378;28;1078;-70
2023/11/02 01:21:15;;;;;;;3.30;0.80;;;;;;;;;;468652;29;2061;-70
2023/11/02 01:21:30;;;;;;;2.97;0.90;;;;;;;;;;466021;29;1284;-71
2023/11/02 01:21:46;;;;;;;3.15;0.80;;;;;;;;;;465219;29;1238;-70
2023/11/02 01:22:02;;;;;;;3.53;0.90;;;;;;;;;;465655;29;1293;-70
2023/11/02 01:22:29;;;;;;;2.90;0.80;;;;;;;;;;466578;29;935;-70
2023/11/02 01:22:54;;;;;;;2.20;0.80;;;;;;;;;;466436;29;1069;-70
2023/11/02 01:23:15;;;;;;;2.05;0.73;;;;;;;;;;465591;29;1259;-70
2023/11/02 01:23:32;;;;;;;2.50;0.80;;;;;;;;;;467615;29;972;-70
2023/11/02 01:24:01;;;;;;;3.05;0.85;;;;;;;;;;469305;28;1702;-70
2023/11/02 01:24:22;;;;;;;2.85;1.00;;;;;;;;;;466809;29;1233;-70
2023/11/02 01:24:39;;;;;;;2.22;0.80;;;;;;;;;;469162;28;1145;-70
2023/11/02 01:25:11;;;;;;;3.45;0.90;;;;;;;;;;468695;28;1033;-70
2023/11/02 01:25:28;;;;;;;3.42;1.17;;;;;;;;;;468306;28;1189;-70
2023/11/02 01:25:45;;;;;;;4.20;1.02;;;;;;;;;;466880;29;1039;-70
2023/11/02 01:26:01;;;;;;;4.88;1.00;;;;;;;;;;466695;29;1244;-70
2023/11/02 01:26:51;;;;;;;3.58;1.00;;;;;;;;;;469624;28;1298;-70
2023/11/02 01:27:08;;;;;;;3.63;0.90;;;;;;;;;;474770;28;921;-70
2023/11/02 01:27:28;;;;;;;3.42;0.85;;;;;;;;;;474560;28;1318;-71
2023/11/02 01:27:44;;;;;;;3.15;0.82;;;;;;;;;;475517;28;1420;-70
2023/11/02 01:28:06;;;;;;;2.60;0.80;;;;;;;;;;476500;28;1222;-70
2023/11/02 01:28:23;;;;;;;2.78;0.80;;;;;;;;;;474015;28;1735;-70
2023/11/02 01:28:51;;;;;;;3.67;0.88;;;;;;;;;;476191;28;1047;-70
2023/11/02 01:29:07;;;;;;;2.65;0.73;;;;;;;;;;476007;28;1404;-70
2023/11/02 01:29:22;;;;;;;1.97;0.70;;;;;;;;;;475751;28;1252;-71
2023/11/02 01:29:38;;;;;;;2.63;0.80;;;;;;;;;;476287;28;1223;-70
2023/11/02 01:29:53;;;;;;;3.03;0.80;;;;;;;;;;475413;28;867;-70
2023/11/02 01:30:10;;;;;;;3.15;0.80;;;;;;;;;;477197;28;1560;-70
2023/11/02 01:30:27;;;;;;;3.00;0.80;;;;;;;;;;476582;28;1385;-70
2023/11/02 01:30:43;;;;;;;2.45;0.73;;;;;;;;;;476689;28;1117;-70
2023/11/02 01:31:01;;;;;;;2.80;0.80;;;;;;;;;;474584;28;1286;-70
2023/11/02 01:31:18;;;;;;;2.58;0.80;;;;;;;;;;473783;28;1220;-70
2023/11/02 01:31:35;;;;;;;1.85;0.80;;;;;;;;;;474645;28;1005;-70
2023/11/02 01:31:51;;;;;;;1.70;0.70;;;;;;;;;;476530;28;1065;-70
2023/11/02 01:32:07;;;;;;;1.95;0.70;;;;;;;;;;477751;28;1172;-70
2023/11/02 01:32:23;;;;;;;2.78;0.93;;;;;;;;;;477239;28;1257;-70
2023/11/02 01:32:38;;;;;;;3.10;0.95;;;;;;;;;;476130;28;1117;-70
2023/11/02 01:32:54;;;;;;;3.20;0.80;;;;;;;;;;476597;28;1113;-70
2023/11/02 01:33:36;;;;;;;3.40;0.80;;;;;;;;;;476639;28;1172;-70
2023/11/02 01:34:01;;;;;;;2.72;0.80;;;;;;;;;;474178;28;2377;-70
2023/11/02 01:34:20;;;;;;;3.35;0.80;;;;;;;;;;478508;28;1141;-70
2023/11/02 01:34:37;;;;;;;3.00;0.75;;;;;;;;;;476112;28;1280;-70
2023/11/02 01:34:52;;;;;;;1.95;0.80;;;;;;;;;;478289;28;894;-71
2023/11/02 01:35:28;;;;;;;2.42;0.77;;;;;;;;;;477181;28;1289;-70
2023/11/02 01:35:44;;;;;;;2.83;0.75;;;;;;;;;;478963;28;1140;-70
2023/11/02 01:36:00;;;;;;;3.88;0.90;;;;;;;;;;479001;28;910;-70
2023/11/02 01:36:26;;;;;;;3.85;0.85;;;;;;;;;;477234;28;925;-70
2023/11/02 01:36:44;;;;;;;3.20;0.80;;;;;;;;;;479512;28;921;-70
2023/11/02 01:36:59;;;;;;;2.30;0.77;;;;;;;;;;479295;28;906;-70
2023/11/02 01:37:18;;;;;;;2.28;0.70;;;;;;;;;;479439;28;926;-70
2023/11/02 01:37:33;;;;;;;2.38;0.80;;;;;;;;;;480585;28;950;-70
2023/11/02 01:37:51;;;;;;;2.53;0.80;;;;;;;;;;478308;28;1291;-70
2023/11/02 01:38:09;;;;;;;2.63;0.80;;;;;;;;;;478052;28;1070;-70
2023/11/02 01:38:26;;;;;;;2.70;0.90;;;;;;;;;;477130;28;1383;-70
2023/11/02 01:38:44;;;;;;;2.58;0.80;;;;;;;;;;477515;28;936;-70
2023/11/02 01:39:27;;;;;;;2.80;0.90;;;;;;;;;;475644;28;1248;-70
2023/11/02 01:39:45;;;;;;;3.22;0.82;;;;;;;;;;476785;28;1167;-70
2023/11/02 01:40:32;;;;;;;3.08;0.73;;;;;;;;;;476139;28;1305;-71
2023/11/02 01:40:52;;;;;;;3.45;1.00;;;;;;;;;;476860;28;953;-70
2023/11/02 01:41:11;;;;;;;3.67;0.90;;;;;;;;;;477287;28;1195;-70
2023/11/02 01:41:34;;;;;;;3.90;0.82;;;;;;;;;;475254;28;1171;-70
2023/11/02 01:42:21;;;;;;;2.33;0.80;;;;;;;;;;476465;28;957;-70
2023/11/02 01:42:42;;;;;;;2.35;0.70;;;;;;;;;;476812;28;1377;-70
2023/11/02 01:42:58;;;;;;;2.33;0.80;;;;;;;;;;476879;28;1157;-70
2023/11/02 01:43:23;;;;;;;2.63;0.90;;;;;;;;;;479190;28;1237;-70
2023/11/02 01:44:10;;;;;;;3.17;1.00;;;;;;;;;;479252;28;969;-70
2023/11/02 01:44:45;;;;;;;2.28;0.70;;;;;;;;;;477867;28;898;-70
2023/11/02 01:45:11;;;;;;;2.97;0.70;;;;;;;;;;478474;28;942;-70
2023/11/02 01:45:28;;;;;;;2.35;0.80;;;;;;;;;;482378;28;1115;-70
2023/11/02 01:45:47;;;;;;;3.03;0.90;;;;;;;;;;482893;28;981;-70
2023/11/02 01:46:08;;;;;;;2.03;0.70;;;;;;;;;;479717;28;1596;-70
2023/11/02 01:46:34;;;;;;;2.60;0.80;;;;;;;;;;480768;28;970;-70
2023/11/02 01:46:54;;;;;;;2.95;0.90;;;;;;;;;;480314;28;1105;-70
2023/11/02 01:47:20;;;;;;;2.88;0.80;;;;;;;;;;481428;28;973;-70
2023/11/02 01:47:41;;;;;;;2.42;0.80;;;;;;;;;;477644;28;1064;-70
2023/11/02 01:48:04;;;;;;;3.08;0.80;;;;;;;;;;477782;28;1780;-70
2023/11/02 01:48:23;;;;;;;3.08;0.90;;;;;;;;;;478782;28;1169;-71
2023/11/02 01:48:44;;;;;;;3.03;0.80;;;;;;;;;;476669;28;1116;-70
2023/11/02 01:49:25;;;;;;;3.53;0.90;;;;;;;;;;478770;28;1113;-70
2023/11/02 01:50:11;;;;;;;4.00;0.80;;;;;;;;;;479137;28;1050;-70
2023/11/02 01:50:32;;;;;;;3.08;0.80;;;;;;;;;;477236;28;1086;-70
2023/11/02 01:50:57;;;;;;;3.20;0.73;;;;;;;;;;478330;28;925;-70
2023/11/02 01:51:27;;;;;;;2.03;0.70;;;;;;;;;;476472;28;1111;-70
2023/11/02 01:52:15;;;;;;;2.20;0.70;;;;;;;;;;479460;28;1140;-70
2023/11/02 01:52:33;;;;;;;2.78;0.70;;;;;;;;;;478743;28;950;-70
2023/11/02 01:53:01;;;;;;;2.70;0.75;;;;;;;;;;477822;28;1230;-70
2023/11/02 01:53:38;;;;;;;2.15;0.70;;;;;;;;;;478893;28;973;-70
2023/11/02 01:54:01;;;;;;;2.65;0.80;;;;;;;;;;478491;28;984;-70
2023/11/02 01:54:56;;;;;;;2.60;0.90;;;;;;;;;;478609;28;1134;-70
2023/11/02 01:55:49;;;;;;;2.75;0.88;;;;;;;;;;478773;28;1275;-70
2023/11/02 01:56:24;;;;;;;4.15;0.80;;;;;;;;;;471234;28;1136;-70
2023/11/02 01:56:45;;;;;;;3.05;0.80;;;;;;;;;;478920;28;1154;-70
2023/11/02 01:57:08;;;;;;;3.10;0.80;;;;;;;;;;478896;28;1125;-70
2023/11/02 01:57:49;;;;;;;3.53;0.80;;;;;;;;;;479430;28;1331;-70
2023/11/02 01:58:49;;;;;;;3.13;0.80;;;;;;;;;;479002;28;1274;-71
2023/11/02 01:59:14;;;;;;;3.35;0.98;;;;;;;;;;479654;28;1668;-70
2023/11/02 01:59:51;;;;;;;3.33;0.88;;;;;;;;;;477667;28;1339;-70
2023/11/02 02:00:13;;;;;;;3.10;0.70;;;;;;;;;;477135;28;1266;-70
2023/11/02 02:00:39;;;;;;;4.25;0.80;;;;;;;;;;476750;28;1146;-71
2023/11/02 02:01:06;;;;;;;3.00;0.85;;;;;;;;;;477169;28;1057;-71
2023/11/02 02:01:26;;;;;;;1.88;0.80;;;;;;;;;;479115;28;1029;-70
2023/11/02 02:01:50;;;;;;;1.83;0.80;;;;;;;;;;479891;28;1179;-70
2023/11/02 02:02:13;;;;;;;2.00;0.80;;;;;;;;;;478077;28;1365;-70
2023/11/02 02:02:37;;;;;;;2.13;0.80;;;;;;;;;;475590;28;1151;-70
2023/11/02 02:03:21;;;;;;;2.97;0.80;;;;;;;;;;476755;28;1378;-70
2023/11/02 02:03:39;;;;;;;3.10;0.88;;;;;;;;;;476127;28;966;-70
2023/11/02 02:04:02;;;;;;;3.15;0.80;;;;;;;;;;475573;28;1048;-70
2023/11/02 02:04:31;;;;;;;3.47;0.80;;;;;;;;;;476085;28;1054;-70
2023/11/02 02:05:03;;;;;;;3.55;0.93;;;;;;;;;;479788;28;1077;-70
2023/11/02 02:05:35;;;;;;;3.72;0.80;;;;;;;;;;481010;28;941;-70
2023/11/02 02:05:59;;;;;;;3.38;0.85;;;;;;;;;;480578;28;1405;-70
2023/11/02 02:06:36;;;;;;;2.65;0.82;;;;;;;;;;480268;28;1103;-70
2023/11/02 02:07:15;;;;;;;2.80;0.70;;;;;;;;;;478369;28;905;-70
2023/11/02 02:07:48;;;;;;;2.72;0.80;;;;;;;;;;478902;28;897;-70
2023/11/02 02:08:17;;;;;;;3.70;0.90;;;;;;;;;;481177;28;1257;-70
2023/11/02 02:08:53;;;;;;;2.58;0.80;;;;;;;;;;482307;28;1071;-70
2023/11/02 02:09:37;;;;;;;2.63;0.90;;;;;;;;;;480617;28;1245;-70